Terminal Aerodrome Forecast
Issued by NWS Sioux Falls, SD

Home | Current Version | Previous Version | Text Only | Print | Product List | Glossary On
Versions: 1 2 3 4 5 6 7 8 9 10 11 12 13 14 15 16
000
FTUS43 KFSD 311720
TAFHON
TAF
KHON 311720Z 3118/0118 04012KT P6SM OVC012
     FM010200 03015KT 4SM -SN OVC015
     FM010500 01015G21KT 1SM -SN OVC010
     FM011000 36016G23KT 3SM -SN OVC012
     FM011500 36017G24KT P6SM BKN015=

USA.gov is the U.S. government's official web portal to all federal, state and local government web resources and services.